Terminal Aerodrome Forecast
Issued by NWS

Home | Current Version | Previous Version | Text Only | Print | Product List | Glossary Off
Versions: 1 2 3 4 5 6 7 8 9 10 11 12 13 14 15 16 17 18 19 20 21 22 23 24 25 26

000
FTUS43 KMPX 160900 AAA
TAFRWF
TAF AMD
KRWF 160900Z 1609/1706 14008KT P6SM VCSH OVC015
      TEMPO 1609/1612 3SM -RA OVC008
     FM161200 13007KT 5SM -SHRA BR OVC008
     FM162000 13007KT 5SM BR OVC020
     FM162200 16008KT 6SM BR OVC025
      TEMPO 1622/1702 3SM TSRA OVC030CB
     FM170300 05006KT 4SM BR OVC012=

USA.gov is the U.S. government's official web portal to all federal, state and local government web resources and services.